sensor_id;sensor_type;location;lat;lon;timestamp;temperature;humidity
51579;DHT22;47998;53.242;6.386;2022-12-15T00:00:50;-0.70;99.90
51579;DHT22;47998;53.242;6.386;2022-12-15T00:03:34;-0.80;99.90
51579;DHT22;47998;53.242;6.386;2022-12-15T00:06:18;-0.90;99.90
51579;DHT22;47998;53.242;6.386;2022-12-15T00:09:03;-0.20;99.90
51579;DHT22;47998;53.242;6.386;2022-12-15T00:11:47;-1.00;99.90
51579;DHT22;47998;53.242;6.386;2022-12-15T00:14:32;-1.00;99.90
51579;DHT22;47998;53.242;6.386;2022-12-15T00:17:16;-1.10;99.90
51579;DHT22;47998;53.242;6.386;2022-12-15T00:20:01;-1.10;99.90
51579;DHT22;47998;53.242;6.386;2022-12-15T00:22:45;-1.30;99.90
51579;DHT22;47998;53.242;6.386;2022-12-15T00:25:29;-0.90;99.90
51579;DHT22;47998;53.242;6.386;2022-12-15T00:28:14;-1.40;99.90
51579;DHT22;47998;53.242;6.386;2022-12-15T00:30:58;-1.20;99.90
51579;DHT22;47998;53.242;6.386;2022-12-15T00:33:42;-1.20;99.90
51579;DHT22;47998;53.242;6.386;2022-12-15T00:36:27;-1.10;99.90
51579;DHT22;47998;53.242;6.386;2022-12-15T00:39:11;-1.20;99.90
51579;DHT22;47998;53.242;6.386;2022-12-15T00:41:37;-1.20;99.90
51579;DHT22;47998;53.242;6.386;2022-12-15T00:44:03;-1.10;99.90
51579;DHT22;47998;53.242;6.386;2022-12-15T00:46:29;-1.10;99.90
51579;DHT22;47998;53.242;6.386;2022-12-15T00:49:13;-1.10;99.90
51579;DHT22;47998;53.242;6.386;2022-12-15T00:51:58;-1.30;99.90
51579;DHT22;47998;53.242;6.386;2022-12-15T00:54:42;-1.20;99.90
51579;DHT22;47998;53.242;6.386;2022-12-15T00:57:26;-1.20;99.90
51579;DHT22;47998;53.242;6.386;2022-12-15T01:00:11;-1.20;99.90
51579;DHT22;47998;53.242;6.386;2022-12-15T01:02:55;-1.10;99.90
51579;DHT22;47998;53.242;6.386;2022-12-15T01:05:39;-1.10;99.90
51579;DHT22;47998;53.242;6.386;2022-12-15T01:08:24;-0.40;99.90
51579;DHT22;47998;53.242;6.386;2022-12-15T01:11:08;-0.90;99.90
51579;DHT22;47998;53.242;6.386;2022-12-15T01:13:52;-1.20;99.90
51579;DHT22;47998;53.242;6.386;2022-12-15T01:16:37;-0.80;99.90
51579;DHT22;47998;53.242;6.386;2022-12-15T01:19:21;-0.60;99.90
51579;DHT22;47998;53.242;6.386;2022-12-15T01:22:06;-1.20;99.90
51579;DHT22;47998;53.242;6.386;2022-12-15T01:24:32;-0.70;99.90
51579;DHT22;47998;53.242;6.386;2022-12-15T01:26:58;-0.80;99.90
51579;DHT22;47998;53.242;6.386;2022-12-15T01:29:24;-0.90;99.90
51579;DHT22;47998;53.242;6.386;2022-12-15T01:31:50;-1.20;99.90
51579;DHT22;47998;53.242;6.386;2022-12-15T01:34:16;-1.40;99.90
51579;DHT22;47998;53.242;6.386;2022-12-15T01:36:41;-2.00;99.90
51579;DHT22;47998;53.242;6.386;2022-12-15T01:39:07;-1.70;99.90
51579;DHT22;47998;53.242;6.386;2022-12-15T01:41:33;-1.80;99.90
51579;DHT22;47998;53.242;6.386;2022-12-15T01:44:20;-1.90;99.90
51579;DHT22;47998;53.242;6.386;2022-12-15T01:46:48;-2.00;99.90
51579;DHT22;47998;53.242;6.386;2022-12-15T01:49:19;-2.10;99.90
51579;DHT22;47998;53.242;6.386;2022-12-15T01:51:47;-2.20;99.90
51579;DHT22;47998;53.242;6.386;2022-12-15T01:54:19;-2.20;99.90
51579;DHT22;47998;53.242;6.386;2022-12-15T01:56:52;-2.30;99.90
51579;DHT22;47998;53.242;6.386;2022-12-15T01:59:29;-2.30;99.90
51579;DHT22;47998;53.242;6.386;2022-12-15T02:01:57;-2.40;99.90
51579;DHT22;47998;53.242;6.386;2022-12-15T02:04:23;-2.40;99.90
51579;DHT22;47998;53.242;6.386;2022-12-15T02:06:49;-2.40;99.90
51579;DHT22;47998;53.242;6.386;2022-12-15T02:09:17;-2.40;99.90
51579;DHT22;47998;53.242;6.386;2022-12-15T02:14:11;-2.30;99.90
51579;DHT22;47998;53.242;6.386;2022-12-15T02:17:13;-2.30;99.90
51579;DHT22;47998;53.242;6.386;2022-12-15T02:20:05;-2.10;99.90
51579;DHT22;47998;53.242;6.386;2022-12-15T02:25:09;-2.10;99.90
51579;DHT22;47998;53.242;6.386;2022-12-15T02:28:10;-2.20;99.90
51579;DHT22;47998;53.242;6.386;2022-12-15T02:30:50;-2.20;99.90
51579;DHT22;47998;53.242;6.386;2022-12-15T02:33:51;-2.30;99.90
51579;DHT22;47998;53.242;6.386;2022-12-15T02:39:23;-2.30;99.90
51579;DHT22;47998;53.242;6.386;2022-12-15T02:41:50;-2.40;99.90
51579;DHT22;47998;53.242;6.386;2022-12-15T02:49:54;-2.50;99.90
51579;DHT22;47998;53.242;6.386;2022-12-15T02:55:29;-2.50;99.90
51579;DHT22;47998;53.242;6.386;2022-12-15T02:58:28;-2.60;99.90
51579;DHT22;47998;53.242;6.386;2022-12-15T03:01:00;-2.70;99.90
51579;DHT22;47998;53.242;6.386;2022-12-15T03:03:28;-2.90;99.90
51579;DHT22;47998;53.242;6.386;2022-12-15T03:05:56;-3.10;99.90
51579;DHT22;47998;53.242;6.386;2022-12-15T03:08:22;-3.30;99.90
51579;DHT22;47998;53.242;6.386;2022-12-15T03:10:50;-3.30;99.90
51579;DHT22;47998;53.242;6.386;2022-12-15T03:13:16;-3.20;99.90
51579;DHT22;47998;53.242;6.386;2022-12-15T03:15:42;-3.20;99.90
51579;DHT22;47998;53.242;6.386;2022-12-15T03:18:08;-3.30;99.90
51579;DHT22;47998;53.242;6.386;2022-12-15T03:20:34;-3.30;99.90
51579;DHT22;47998;53.242;6.386;2022-12-15T03:22:59;-3.30;99.90
51579;DHT22;47998;53.242;6.386;2022-12-15T03:25:26;-3.20;99.90
51579;DHT22;47998;53.242;6.386;2022-12-15T03:27:52;-3.20;99.90
51579;DHT22;47998;53.242;6.386;2022-12-15T03:30:18;-3.30;99.90
51579;DHT22;47998;53.242;6.386;2022-12-15T03:32:44;-3.30;99.90
51579;DHT22;47998;53.242;6.386;2022-12-15T03:35:09;-3.30;99.90
51579;DHT22;47998;53.242;6.386;2022-12-15T03:37:37;-3.30;99.90
51579;DHT22;47998;53.242;6.386;2022-12-15T03:40:04;-3.30;99.90
51579;DHT22;47998;53.242;6.386;2022-12-15T03:42:30;-3.20;99.90
51579;DHT22;47998;53.242;6.386;2022-12-15T03:45:31;-3.30;99.90
51579;DHT22;47998;53.242;6.386;2022-12-15T03:47:57;-3.30;99.90
51579;DHT22;47998;53.242;6.386;2022-12-15T03:50:25;-3.30;99.90
51579;DHT22;47998;53.242;6.386;2022-12-15T03:52:59;-3.30;99.90
51579;DHT22;47998;53.242;6.386;2022-12-15T03:55:26;-3.40;99.90
51579;DHT22;47998;53.242;6.386;2022-12-15T03:57:53;-3.60;99.90
51579;DHT22;47998;53.242;6.386;2022-12-15T04:00:21;-3.80;99.90
51579;DHT22;47998;53.242;6.386;2022-12-15T04:02:47;-3.90;99.90
51579;DHT22;47998;53.242;6.386;2022-12-15T04:05:26;-4.00;99.90
51579;DHT22;47998;53.242;6.386;2022-12-15T04:07:53;-4.00;99.90
51579;DHT22;47998;53.242;6.386;2022-12-15T04:10:20;-3.90;99.90
51579;DHT22;47998;53.242;6.386;2022-12-15T04:12:46;-3.90;99.90
51579;DHT22;47998;53.242;6.386;2022-12-15T04:15:12;-4.00;99.90
51579;DHT22;47998;53.242;6.386;2022-12-15T04:17:37;-4.00;99.90
51579;DHT22;47998;53.242;6.386;2022-12-15T04:20:04;-4.10;99.90
51579;DHT22;47998;53.242;6.386;2022-12-15T04:22:38;-4.00;99.90
51579;DHT22;47998;53.242;6.386;2022-12-15T04:25:05;-3.90;99.90
51579;DHT22;47998;53.242;6.386;2022-12-15T04:27:50;-3.80;99.90
51579;DHT22;47998;53.242;6.386;2022-12-15T04:30:34;-3.70;99.90
51579;DHT22;47998;53.242;6.386;2022-12-15T04:33:19;-3.40;99.90
51579;DHT22;47998;53.242;6.386;2022-12-15T04:36:04;-3.30;99.90
51579;DHT22;47998;53.242;6.386;2022-12-15T04:38:49;-3.20;99.90
51579;DHT22;47998;53.242;6.386;2022-12-15T04:41:33;-3.00;99.90
51579;DHT22;47998;53.242;6.386;2022-12-15T04:44:17;-2.90;99.90
51579;DHT22;47998;53.242;6.386;2022-12-15T04:47:02;-2.80;99.90
51579;DHT22;47998;53.242;6.386;2022-12-15T04:49:46;-2.80;99.90
51579;DHT22;47998;53.242;6.386;2022-12-15T04:52:30;-2.70;99.90
51579;DHT22;47998;53.242;6.386;2022-12-15T04:55:14;-2.60;99.90
51579;DHT22;47998;53.242;6.386;2022-12-15T04:58:04;-2.50;99.90
51579;DHT22;47998;53.242;6.386;2022-12-15T05:00:49;-2.40;99.90
51579;DHT22;47998;53.242;6.386;2022-12-15T05:03:33;-2.40;99.90
51579;DHT22;47998;53.242;6.386;2022-12-15T05:06:17;-2.40;99.90
51579;DHT22;47998;53.242;6.386;2022-12-15T05:09:02;-2.40;99.90
51579;DHT22;47998;53.242;6.386;2022-12-15T05:11:46;-2.50;99.90
51579;DHT22;47998;53.242;6.386;2022-12-15T05:14:30;-2.50;99.90
51579;DHT22;47998;53.242;6.386;2022-12-15T05:17:15;-2.40;99.90
51579;DHT22;47998;53.242;6.386;2022-12-15T05:19:59;-2.50;99.90
51579;DHT22;47998;53.242;6.386;2022-12-15T05:22:43;-2.50;99.90
51579;DHT22;47998;53.242;6.386;2022-12-15T05:25:28;-2.60;99.90
51579;DHT22;47998;53.242;6.386;2022-12-15T05:28:12;-2.50;99.90
51579;DHT22;47998;53.242;6.386;2022-12-15T05:30:56;-2.50;99.90
51579;DHT22;47998;53.242;6.386;2022-12-15T05:33:40;-2.40;99.90
51579;DHT22;47998;53.242;6.386;2022-12-15T05:36:06;-2.40;99.90
51579;DHT22;47998;53.242;6.386;2022-12-15T05:38:32;-2.40;99.90
51579;DHT22;47998;53.242;6.386;2022-12-15T05:40:58;-2.50;99.90
51579;DHT22;47998;53.242;6.386;2022-12-15T05:43:24;-2.50;99.90
51579;DHT22;47998;53.242;6.386;2022-12-15T05:45:50;-1.70;99.90
51579;DHT22;47998;53.242;6.386;2022-12-15T05:48:16;-2.30;99.90
51579;DHT22;47998;53.242;6.386;2022-12-15T05:50:41;-2.30;99.90
51579;DHT22;47998;53.242;6.386;2022-12-15T05:53:07;-2.30;99.90
51579;DHT22;47998;53.242;6.386;2022-12-15T05:55:33;-2.20;99.90
51579;DHT22;47998;53.242;6.386;2022-12-15T05:57:58;-2.20;99.90
51579;DHT22;47998;53.242;6.386;2022-12-15T06:00:24;-2.10;99.90
51579;DHT22;47998;53.242;6.386;2022-12-15T06:02:50;-2.00;99.90
51579;DHT22;47998;53.242;6.386;2022-12-15T06:05:16;-2.00;99.90
51579;DHT22;47998;53.242;6.386;2022-12-15T06:07:42;-2.00;99.90
51579;DHT22;47998;53.242;6.386;2022-12-15T06:10:08;-2.00;99.90
51579;DHT22;47998;53.242;6.386;2022-12-15T06:12:34;-1.90;99.90
51579;DHT22;47998;53.242;6.386;2022-12-15T06:14:59;-2.00;99.90
51579;DHT22;47998;53.242;6.386;2022-12-15T06:17:25;-1.90;99.90
51579;DHT22;47998;53.242;6.386;2022-12-15T06:19:51;-1.90;99.90
51579;DHT22;47998;53.242;6.386;2022-12-15T06:22:16;-1.90;99.90
51579;DHT22;47998;53.242;6.386;2022-12-15T06:24:42;-1.90;99.90
51579;DHT22;47998;53.242;6.386;2022-12-15T06:27:08;-1.80;99.90
51579;DHT22;47998;53.242;6.386;2022-12-15T06:29:33;-1.80;99.90
51579;DHT22;47998;53.242;6.386;2022-12-15T06:31:59;-1.80;99.90
51579;DHT22;47998;53.242;6.386;2022-12-15T06:34:25;-1.80;99.90
51579;DHT22;47998;53.242;6.386;2022-12-15T06:36:51;-1.80;99.90
51579;DHT22;47998;53.242;6.386;2022-12-15T06:39:17;-1.80;99.90
51579;DHT22;47998;53.242;6.386;2022-12-15T06:41:43;-1.80;99.90
51579;DHT22;47998;53.242;6.386;2022-12-15T06:44:14;-1.80;99.90
51579;DHT22;47998;53.242;6.386;2022-12-15T06:46:40;-1.80;99.90
51579;DHT22;47998;53.242;6.386;2022-12-15T06:49:06;-1.00;99.90
51579;DHT22;47998;53.242;6.386;2022-12-15T06:51:32;-1.70;99.90
51579;DHT22;47998;53.242;6.386;2022-12-15T06:53:58;-1.70;99.90
51579;DHT22;47998;53.242;6.386;2022-12-15T06:56:32;-1.90;99.90
51579;DHT22;47998;53.242;6.386;2022-12-15T06:58:58;-1.60;99.90
51579;DHT22;47998;53.242;6.386;2022-12-15T07:01:24;-1.60;99.90
51579;DHT22;47998;53.242;6.386;2022-12-15T07:03:51;-1.60;99.90
51579;DHT22;47998;53.242;6.386;2022-12-15T07:06:17;-1.60;99.90
51579;DHT22;47998;53.242;6.386;2022-12-15T07:08:46;-1.70;99.90
51579;DHT22;47998;53.242;6.386;2022-12-15T07:11:13;-1.80;99.90
51579;DHT22;47998;53.242;6.386;2022-12-15T07:13:39;-1.80;99.90
51579;DHT22;47998;53.242;6.386;2022-12-15T07:16:06;-1.70;99.90
51579;DHT22;47998;53.242;6.386;2022-12-15T07:18:32;-1.70;99.90
51579;DHT22;47998;53.242;6.386;2022-12-15T07:21:03;-1.60;99.90
51579;DHT22;47998;53.242;6.386;2022-12-15T07:23:29;-1.50;99.90
51579;DHT22;47998;53.242;6.386;2022-12-15T07:25:55;-1.50;99.90
51579;DHT22;47998;53.242;6.386;2022-12-15T07:28:21;-1.40;99.90
51579;DHT22;47998;53.242;6.386;2022-12-15T07:30:46;-1.40;99.90
51579;DHT22;47998;53.242;6.386;2022-12-15T07:33:12;-1.40;99.90
51579;DHT22;47998;53.242;6.386;2022-12-15T07:35:40;-1.30;99.90
51579;DHT22;47998;53.242;6.386;2022-12-15T07:38:06;-1.20;99.90
51579;DHT22;47998;53.242;6.386;2022-12-15T07:40:34;-1.30;99.90
51579;DHT22;47998;53.242;6.386;2022-12-15T07:42:59;-1.30;99.90
51579;DHT22;47998;53.242;6.386;2022-12-15T07:45:25;-1.30;99.90
51579;DHT22;47998;53.242;6.386;2022-12-15T07:47:51;-1.30;99.90
51579;DHT22;47998;53.242;6.386;2022-12-15T07:50:18;-1.30;99.90
51579;DHT22;47998;53.242;6.386;2022-12-15T07:52:44;-1.40;99.90
51579;DHT22;47998;53.242;6.386;2022-12-15T07:55:10;-1.50;99.90
51579;DHT22;47998;53.242;6.386;2022-12-15T07:57:36;-1.50;99.90
51579;DHT22;47998;53.242;6.386;2022-12-15T08:00:02;-1.50;99.90
51579;DHT22;47998;53.242;6.386;2022-12-15T08:02:30;-1.50;99.90
51579;DHT22;47998;53.242;6.386;2022-12-15T08:04:56;-1.50;99.90
51579;DHT22;47998;53.242;6.386;2022-12-15T08:07:21;-1.50;99.90
51579;DHT22;47998;53.242;6.386;2022-12-15T08:09:48;-1.50;99.90
51579;DHT22;47998;53.242;6.386;2022-12-15T08:12:14;-1.50;99.90
51579;DHT22;47998;53.242;6.386;2022-12-15T08:14:41;-1.50;99.90
51579;DHT22;47998;53.242;6.386;2022-12-15T08:17:07;-1.50;99.90
51579;DHT22;47998;53.242;6.386;2022-12-15T08:19:33;-1.50;99.90
51579;DHT22;47998;53.242;6.386;2022-12-15T08:21:58;-1.50;99.90
51579;DHT22;47998;53.242;6.386;2022-12-15T08:24:24;-1.50;99.90
51579;DHT22;47998;53.242;6.386;2022-12-15T08:26:50;-1.50;99.90
51579;DHT22;47998;53.242;6.386;2022-12-15T08:29:15;-1.50;99.90
51579;DHT22;47998;53.242;6.386;2022-12-15T08:31:41;-1.40;99.90
51579;DHT22;47998;53.242;6.386;2022-12-15T08:34:08;-1.30;99.90
51579;DHT22;47998;53.242;6.386;2022-12-15T08:36:34;-1.30;99.90
51579;DHT22;47998;53.242;6.386;2022-12-15T08:39:00;-1.20;99.90
51579;DHT22;47998;53.242;6.386;2022-12-15T08:41:29;-1.10;99.90
51579;DHT22;47998;53.242;6.386;2022-12-15T08:43:56;-1.10;99.90
51579;DHT22;47998;53.242;6.386;2022-12-15T08:46:25;-1.10;99.90
51579;DHT22;47998;53.242;6.386;2022-12-15T08:48:51;-1.00;99.90
51579;DHT22;47998;53.242;6.386;2022-12-15T08:51:18;-0.20;99.90
51579;DHT22;47998;53.242;6.386;2022-12-15T08:53:44;-0.90;99.90
51579;DHT22;47998;53.242;6.386;2022-12-15T08:56:15;-0.80;99.90
51579;DHT22;47998;53.242;6.386;2022-12-15T08:58:42;-0.80;99.90
51579;DHT22;47998;53.242;6.386;2022-12-15T09:01:11;-0.70;99.90
51579;DHT22;47998;53.242;6.386;2022-12-15T09:03:37;-1.10;99.90
51579;DHT22;47998;53.242;6.386;2022-12-15T09:06:09;-0.70;99.90
51579;DHT22;47998;53.242;6.386;2022-12-15T09:08:36;-0.50;99.90
51579;DHT22;47998;53.242;6.386;2022-12-15T09:11:02;-0.50;99.90
51579;DHT22;47998;53.242;6.386;2022-12-15T09:13:30;-0.40;99.90
51579;DHT22;47998;53.242;6.386;2022-12-15T09:15:57;-0.50;99.90
51579;DHT22;47998;53.242;6.386;2022-12-15T09:18:23;-0.30;99.90
51579;DHT22;47998;53.242;6.386;2022-12-15T09:20:49;-0.30;99.90
51579;DHT22;47998;53.242;6.386;2022-12-15T09:23:14;1.50;99.90
51579;DHT22;47998;53.242;6.386;2022-12-15T09:25:40;-0.80;99.90
51579;DHT22;47998;53.242;6.386;2022-12-15T09:28:06;-0.20;99.90
51579;DHT22;47998;53.242;6.386;2022-12-15T09:30:31;-0.30;99.90
51579;DHT22;47998;53.242;6.386;2022-12-15T09:32:57;-0.30;99.90
51579;DHT22;47998;53.242;6.386;2022-12-15T09:35:26;-0.50;99.90
51579;DHT22;47998;53.242;6.386;2022-12-15T09:37:52;-0.20;99.90
51579;DHT22;47998;53.242;6.386;2022-12-15T09:40:18;-0.10;99.90
51579;DHT22;47998;53.242;6.386;2022-12-15T09:42:51;-0.10;99.90
51579;DHT22;47998;53.242;6.386;2022-12-15T09:45:25;-0.10;99.90
51579;DHT22;47998;53.242;6.386;2022-12-15T09:47:59;-0.10;99.90
51579;DHT22;47998;53.242;6.386;2022-12-15T09:50:31;-0.50;99.90
51579;DHT22;47998;53.242;6.386;2022-12-15T09:52:59;0.00;99.90
51579;DHT22;47998;53.242;6.386;2022-12-15T09:55:28;0.00;99.90
51579;DHT22;47998;53.242;6.386;2022-12-15T10:00:59;0.10;99.90
51579;DHT22;47998;53.242;6.386;2022-12-15T10:06:14;0.20;99.90
51579;DHT22;47998;53.242;6.386;2022-12-15T10:08:51;0.20;99.90
51579;DHT22;47998;53.242;6.386;2022-12-15T10:19:32;0.40;99.90
51579;DHT22;47998;53.242;6.386;2022-12-15T10:21:59;0.20;99.90
51579;DHT22;47998;53.242;6.386;2022-12-15T10:24:28;0.50;99.90
51579;DHT22;47998;53.242;6.386;2022-12-15T10:27:05;1.80;99.90
51579;DHT22;47998;53.242;6.386;2022-12-15T10:30:02;1.10;99.90
51579;DHT22;47998;53.242;6.386;2022-12-15T10:32:48;1.80;99.90
51579;DHT22;47998;53.242;6.386;2022-12-15T10:35:24;0.70;99.90
51579;DHT22;47998;53.242;6.386;2022-12-15T10:37:57;0.80;99.90
51579;DHT22;47998;53.242;6.386;2022-12-15T10:40:46;0.80;99.90
51579;DHT22;47998;53.242;6.386;2022-12-15T10:43:16;0.90;99.90
51579;DHT22;47998;53.242;6.386;2022-12-15T10:45:47;0.80;99.90
51579;DHT22;47998;53.242;6.386;2022-12-15T10:48:19;1.30;99.90
51579;DHT22;47998;53.242;6.386;2022-12-15T10:50:45;0.90;99.90
51579;DHT22;47998;53.242;6.386;2022-12-15T10:53:33;0.90;99.90
51579;DHT22;47998;53.242;6.386;2022-12-15T10:56:00;1.30;99.90
51579;DHT22;47998;53.242;6.386;2022-12-15T10:58:28;1.70;99.90
51579;DHT22;47998;53.242;6.386;2022-12-15T11:01:13;1.10;99.90
51579;DHT22;47998;53.242;6.386;2022-12-15T11:03:40;1.30;99.90
51579;DHT22;47998;53.242;6.386;2022-12-15T11:06:21;1.30;99.90
51579;DHT22;47998;53.242;6.386;2022-12-15T11:08:50;1.50;99.90
51579;DHT22;47998;53.242;6.386;2022-12-15T11:11:45;2.80;99.90
51579;DHT22;47998;53.242;6.386;2022-12-15T11:14:57;1.70;99.90
51579;DHT22;47998;53.242;6.386;2022-12-15T11:17:23;1.70;99.90
51579;DHT22;47998;53.242;6.386;2022-12-15T11:19:57;1.60;99.90
51579;DHT22;47998;53.242;6.386;2022-12-15T11:22:48;1.80;99.90
51579;DHT22;47998;53.242;6.386;2022-12-15T11:25:50;1.80;99.90
51579;DHT22;47998;53.242;6.386;2022-12-15T11:28:15;1.70;99.90
51579;DHT22;47998;53.242;6.386;2022-12-15T11:30:53;2.10;99.90
51579;DHT22;47998;53.242;6.386;2022-12-15T11:33:20;1.80;99.90
51579;DHT22;47998;53.242;6.386;2022-12-15T11:44:53;1.90;99.90
51579;DHT22;47998;53.242;6.386;2022-12-15T11:47:18;2.00;99.90
51579;DHT22;47998;53.242;6.386;2022-12-15T11:57:52;2.30;99.90
51579;DHT22;47998;53.242;6.386;2022-12-15T12:00:21;2.30;99.90
51579;DHT22;47998;53.242;6.386;2022-12-15T12:05:58;2.40;99.90
51579;DHT22;47998;53.242;6.386;2022-12-15T12:11:23;2.70;99.90
51579;DHT22;47998;53.242;6.386;2022-12-15T12:14:29;2.70;99.90
51579;DHT22;47998;53.242;6.386;2022-12-15T12:17:23;2.90;99.90
51579;DHT22;47998;53.242;6.386;2022-12-15T12:20:01;2.70;99.90
51579;DHT22;47998;53.242;6.386;2022-12-15T12:22:39;2.70;99.90
51579;DHT22;47998;53.242;6.386;2022-12-15T12:25:14;2.80;99.90
51579;DHT22;47998;53.242;6.386;2022-12-15T12:27:53;3.10;99.90
51579;DHT22;47998;53.242;6.386;2022-12-15T12:30:23;3.80;99.90
51579;DHT22;47998;53.242;6.386;2022-12-15T12:36:04;3.70;1.00
51579;DHT22;47998;53.242;6.386;2022-12-15T12:38:38;3.90;56.80
51579;DHT22;47998;53.242;6.386;2022-12-15T12:41:12;4.10;99.90
51579;DHT22;47998;53.242;6.386;2022-12-15T12:43:43;4.20;99.90
51579;DHT22;47998;53.242;6.386;2022-12-15T12:46:21;4.30;1.00
51579;DHT22;47998;53.242;6.386;2022-12-15T12:51:35;4.30;99.90
51579;DHT22;47998;53.242;6.386;2022-12-15T12:56:53;4.20;99.90
51579;DHT22;47998;53.242;6.386;2022-12-15T13:02:22;4.30;99.90
51579;DHT22;47998;53.242;6.386;2022-12-15T13:04:50;4.50;1.00
51579;DHT22;47998;53.242;6.386;2022-12-15T13:07:39;4.40;1.00
51579;DHT22;47998;53.242;6.386;2022-12-15T13:12:58;4.40;1.00
51579;DHT22;47998;53.242;6.386;2022-12-15T13:15:47;4.30;99.90
51579;DHT22;47998;53.242;6.386;2022-12-15T13:18:22;4.20;99.90
51579;DHT22;47998;53.242;6.386;2022-12-15T13:21:43;3.90;1.00
51579;DHT22;47998;53.242;6.386;2022-12-15T13:23:59;3.90;1.00
51579;DHT22;47998;53.242;6.386;2022-12-15T13:26:29;3.70;1.90
51579;DHT22;47998;53.242;6.386;2022-12-15T13:28:56;3.50;1.00
51579;DHT22;47998;53.242;6.386;2022-12-15T13:31:26;3.30;99.90
51579;DHT22;47998;53.242;6.386;2022-12-15T13:34:04;3.40;88.40
51579;DHT22;47998;53.242;6.386;2022-12-15T13:41:42;3.50;17.00
51579;DHT22;47998;53.242;6.386;2022-12-15T13:46:51;3.10;99.90
51579;DHT22;47998;53.242;6.386;2022-12-15T13:54:58;2.90;1.00
51579;DHT22;47998;53.242;6.386;2022-12-15T13:57:25;2.80;1.00
51579;DHT22;47998;53.242;6.386;2022-12-15T14:00:12;2.90;1.00
51579;DHT22;47998;53.242;6.386;2022-12-15T14:02:43;2.70;1.00
51579;DHT22;47998;53.242;6.386;2022-12-15T14:05:18;2.70;1.00
51579;DHT22;47998;53.242;6.386;2022-12-15T14:07:56;2.70;1.00
51579;DHT22;47998;53.242;6.386;2022-12-15T14:10:40;2.70;1.00
51579;DHT22;47998;53.242;6.386;2022-12-15T14:13:27;2.70;1.00
51579;DHT22;47998;53.242;6.386;2022-12-15T14:15:59;2.80;1.00
51579;DHT22;47998;53.242;6.386;2022-12-15T14:18:36;2.80;1.00
51579;DHT22;47998;53.242;6.386;2022-12-15T14:21:28;2.80;1.00
51579;DHT22;47998;53.242;6.386;2022-12-15T14:23:55;2.80;1.00
51579;DHT22;47998;53.242;6.386;2022-12-15T14:26:26;2.80;1.00
51579;DHT22;47998;53.242;6.386;2022-12-15T14:29:01;2.80;1.00
51579;DHT22;47998;53.242;6.386;2022-12-15T14:31:27;2.70;47.80
51579;DHT22;47998;53.242;6.386;2022-12-15T14:34:12;3.10;69.60
51579;DHT22;47998;53.242;6.386;2022-12-15T14:36:41;2.70;20.20
51579;DHT22;47998;53.242;6.386;2022-12-15T14:40:02;2.80;1.00
51579;DHT22;47998;53.242;6.386;2022-12-15T14:42:39;2.70;1.00
51579;DHT22;47998;53.242;6.386;2022-12-15T14:45:20;2.80;1.00
51579;DHT22;47998;53.242;6.386;2022-12-15T14:47:58;2.70;1.00
51579;DHT22;47998;53.242;6.386;2022-12-15T14:50:25;2.70;1.00
51579;DHT22;47998;53.242;6.386;2022-12-15T14:52:58;3.00;54.20
51579;DHT22;47998;53.242;6.386;2022-12-15T14:55:34;2.60;99.90
51579;DHT22;47998;53.242;6.386;2022-12-15T14:58:00;2.40;99.90
51579;DHT22;47998;53.242;6.386;2022-12-15T15:00:33;2.30;99.90
51579;DHT22;47998;53.242;6.386;2022-12-15T15:06:04;2.00;99.90
51579;DHT22;47998;53.242;6.386;2022-12-15T15:08:50;2.00;99.90
51579;DHT22;47998;53.242;6.386;2022-12-15T15:11:22;1.90;99.90
51579;DHT22;47998;53.242;6.386;2022-12-15T15:13:53;1.80;99.90
51579;DHT22;47998;53.242;6.386;2022-12-15T15:16:20;1.70;99.90
51579;DHT22;47998;53.242;6.386;2022-12-15T15:18:53;1.60;99.90
51579;DHT22;47998;53.242;6.386;2022-12-15T15:21:26;1.50;99.90
51579;DHT22;47998;53.242;6.386;2022-12-15T15:24:03;1.40;99.90
51579;DHT22;47998;53.242;6.386;2022-12-15T15:26:30;1.40;99.90
51579;DHT22;47998;53.242;6.386;2022-12-15T15:28:56;1.30;99.90
51579;DHT22;47998;53.242;6.386;2022-12-15T15:31:26;1.30;99.90
51579;DHT22;47998;53.242;6.386;2022-12-15T15:33:53;1.20;99.90
51579;DHT22;47998;53.242;6.386;2022-12-15T15:36:24;1.60;99.90
51579;DHT22;47998;53.242;6.386;2022-12-15T15:38:53;1.10;99.90
51579;DHT22;47998;53.242;6.386;2022-12-15T15:41:20;1.10;99.90
51579;DHT22;47998;53.242;6.386;2022-12-15T15:43:46;1.00;99.90
51579;DHT22;47998;53.242;6.386;2022-12-15T15:46:17;0.90;99.90
51579;DHT22;47998;53.242;6.386;2022-12-15T15:48:49;0.90;99.90
51579;DHT22;47998;53.242;6.386;2022-12-15T15:51:15;1.10;99.90
51579;DHT22;47998;53.242;6.386;2022-12-15T15:53:41;0.80;99.90
51579;DHT22;47998;53.242;6.386;2022-12-15T15:56:10;0.70;99.90
51579;DHT22;47998;53.242;6.386;2022-12-15T15:58:36;0.70;99.90
51579;DHT22;47998;53.242;6.386;2022-12-15T16:01:03;0.70;99.90
51579;DHT22;47998;53.242;6.386;2022-12-15T16:03:28;0.70;99.90
51579;DHT22;47998;53.242;6.386;2022-12-15T16:05:54;0.70;99.90
51579;DHT22;47998;53.242;6.386;2022-12-15T16:08:26;0.90;99.90
51579;DHT22;47998;53.242;6.386;2022-12-15T16:10:53;0.70;99.90
51579;DHT22;47998;53.242;6.386;2022-12-15T16:13:20;0.70;99.90
51579;DHT22;47998;53.242;6.386;2022-12-15T16:15:47;0.70;99.90
51579;DHT22;47998;53.242;6.386;2022-12-15T16:18:13;0.70;99.90
51579;DHT22;47998;53.242;6.386;2022-12-15T16:20:41;0.70;99.90
51579;DHT22;47998;53.242;6.386;2022-12-15T16:23:27;0.70;99.90
51579;DHT22;47998;53.242;6.386;2022-12-15T16:25:58;0.80;99.90
51579;DHT22;47998;53.242;6.386;2022-12-15T16:28:27;1.00;99.90
51579;DHT22;47998;53.242;6.386;2022-12-15T16:30:53;0.90;99.90
51579;DHT22;47998;53.242;6.386;2022-12-15T16:33:20;0.90;99.90
51579;DHT22;47998;53.242;6.386;2022-12-15T16:35:46;0.90;99.90
51579;DHT22;47998;53.242;6.386;2022-12-15T16:38:18;1.00;99.90
51579;DHT22;47998;53.242;6.386;2022-12-15T16:40:45;1.00;99.90
51579;DHT22;47998;53.242;6.386;2022-12-15T16:43:19;1.00;99.90
51579;DHT22;47998;53.242;6.386;2022-12-15T16:45:49;1.10;99.90
51579;DHT22;47998;53.242;6.386;2022-12-15T16:48:15;1.00;99.90
51579;DHT22;47998;53.242;6.386;2022-12-15T16:50:49;1.00;99.90
51579;DHT22;47998;53.242;6.386;2022-12-15T16:53:27;1.00;99.90
51579;DHT22;47998;53.242;6.386;2022-12-15T16:55:55;1.00;99.90
51579;DHT22;47998;53.242;6.386;2022-12-15T16:58:22;0.80;99.90
51579;DHT22;47998;53.242;6.386;2022-12-15T17:00:49;0.70;99.90
51579;DHT22;47998;53.242;6.386;2022-12-15T17:03:18;0.70;99.90
51579;DHT22;47998;53.242;6.386;2022-12-15T17:05:48;0.60;99.90
51579;DHT22;47998;53.242;6.386;2022-12-15T17:08:23;0.70;99.90
51579;DHT22;47998;53.242;6.386;2022-12-15T17:10:50;0.50;99.90
51579;DHT22;47998;53.242;6.386;2022-12-15T17:13:26;0.40;99.90
51579;DHT22;47998;53.242;6.386;2022-12-15T17:15:53;0.30;99.90
51579;DHT22;47998;53.242;6.386;2022-12-15T17:18:19;0.20;99.90
51579;DHT22;47998;53.242;6.386;2022-12-15T17:20:45;0.40;99.90
51579;DHT22;47998;53.242;6.386;2022-12-15T17:23:18;0.20;99.90
51579;DHT22;47998;53.242;6.386;2022-12-15T17:25:47;0.30;99.90
51579;DHT22;47998;53.242;6.386;2022-12-15T17:28:29;0.30;99.90
51579;DHT22;47998;53.242;6.386;2022-12-15T17:30:56;0.30;99.90
51579;DHT22;47998;53.242;6.386;2022-12-15T17:33:25;0.30;99.90
51579;DHT22;47998;53.242;6.386;2022-12-15T17:35:54;0.30;99.90